sensor_id;sensor_type;location;lat;lon;timestamp;P1;durP1;ratioP1;P2;durP2;ratioP2
69714;SDS011;56981;53.532;49.398;2024-03-02T00:01:15;6.30;;;2.92;;
69714;SDS011;56981;53.532;49.398;2024-03-02T00:03:42;5.93;;;2.63;;
69714;SDS011;56981;53.532;49.398;2024-03-02T00:06:08;4.95;;;2.63;;
69714;SDS011;56981;53.532;49.398;2024-03-02T00:08:35;3.83;;;1.98;;
69714;SDS011;56981;53.532;49.398;2024-03-02T00:11:01;3.92;;;2.03;;
69714;SDS011;56981;53.532;49.398;2024-03-02T00:13:31;8.75;;;2.85;;
69714;SDS011;56981;53.532;49.398;2024-03-02T00:15:57;4.43;;;1.75;;
69714;SDS011;56981;53.532;49.398;2024-03-02T00:20:57;11.20;;;2.58;;
69714;SDS011;56981;53.532;49.398;2024-03-02T00:23:23;8.43;;;3.45;;
69714;SDS011;56981;53.532;49.398;2024-03-02T00:25:51;7.53;;;3.13;;
69714;SDS011;56981;53.532;49.398;2024-03-02T00:28:22;6.32;;;2.83;;
69714;SDS011;56981;53.532;49.398;2024-03-02T00:36:08;5.65;;;3.42;;
69714;SDS011;56981;53.532;49.398;2024-03-02T00:38:47;2.40;;;1.52;;
69714;SDS011;56981;53.532;49.398;2024-03-02T00:41:21;7.70;;;2.88;;
69714;SDS011;56981;53.532;49.398;2024-03-02T00:43:58;8.50;;;3.70;;
69714;SDS011;56981;53.532;49.398;2024-03-02T00:46:35;10.55;;;3.90;;
69714;SDS011;56981;53.532;49.398;2024-03-02T00:49:03;9.27;;;3.58;;
69714;SDS011;56981;53.532;49.398;2024-03-02T00:51:52;10.55;;;4.30;;
69714;SDS011;56981;53.532;49.398;2024-03-02T00:54:20;13.40;;;3.70;;
69714;SDS011;56981;53.532;49.398;2024-03-02T00:56:47;11.05;;;4.40;;
69714;SDS011;56981;53.532;49.398;2024-03-02T00:59:14;2.55;;;1.73;;
69714;SDS011;56981;53.532;49.398;2024-03-02T01:01:40;9.18;;;4.30;;
69714;SDS011;56981;53.532;49.398;2024-03-02T01:04:06;7.50;;;2.63;;
69714;SDS011;56981;53.532;49.398;2024-03-02T01:06:32;12.00;;;3.40;;
69714;SDS011;56981;53.532;49.398;2024-03-02T01:08:58;11.57;;;3.97;;
69714;SDS011;56981;53.532;49.398;2024-03-02T01:11:24;6.78;;;3.10;;
69714;SDS011;56981;53.532;49.398;2024-03-02T01:13:50;9.30;;;3.67;;
69714;SDS011;56981;53.532;49.398;2024-03-02T01:16:17;7.82;;;2.92;;
69714;SDS011;56981;53.532;49.398;2024-03-02T01:18:43;7.82;;;2.08;;
69714;SDS011;56981;53.532;49.398;2024-03-02T01:21:09;6.15;;;2.90;;
69714;SDS011;56981;53.532;49.398;2024-03-02T01:23:35;5.00;;;1.70;;
69714;SDS011;56981;53.532;49.398;2024-03-02T01:26:01;14.27;;;3.75;;
69714;SDS011;56981;53.532;49.398;2024-03-02T01:28:32;10.10;;;3.95;;
69714;SDS011;56981;53.532;49.398;2024-03-02T01:30:58;7.43;;;3.10;;
69714;SDS011;56981;53.532;49.398;2024-03-02T01:33:24;6.03;;;2.45;;
69714;SDS011;56981;53.532;49.398;2024-03-02T01:35:50;3.70;;;1.58;;
69714;SDS011;56981;53.532;49.398;2024-03-02T01:38:16;7.22;;;2.38;;
69714;SDS011;56981;53.532;49.398;2024-03-02T01:40:42;7.80;;;3.33;;
69714;SDS011;56981;53.532;49.398;2024-03-02T01:43:11;8.60;;;3.72;;
69714;SDS011;56981;53.532;49.398;2024-03-02T01:45:37;8.23;;;3.38;;
69714;SDS011;56981;53.532;49.398;2024-03-02T01:48:04;8.50;;;3.95;;
69714;SDS011;56981;53.532;49.398;2024-03-02T01:50:32;8.73;;;3.00;;
69714;SDS011;56981;53.532;49.398;2024-03-02T01:52:59;8.32;;;3.28;;
69714;SDS011;56981;53.532;49.398;2024-03-02T01:55:26;3.63;;;3.08;;
69714;SDS011;56981;53.532;49.398;2024-03-02T01:57:54;3.92;;;2.60;;
69714;SDS011;56981;53.532;49.398;2024-03-02T02:00:26;6.57;;;3.10;;
69714;SDS011;56981;53.532;49.398;2024-03-02T02:02:53;6.78;;;3.08;;
69714;SDS011;56981;53.532;49.398;2024-03-02T02:05:19;10.15;;;4.22;;
69714;SDS011;56981;53.532;49.398;2024-03-02T02:07:46;9.75;;;4.45;;
69714;SDS011;56981;53.532;49.398;2024-03-02T02:10:12;10.30;;;4.25;;
69714;SDS011;56981;53.532;49.398;2024-03-02T02:12:38;10.65;;;4.28;;
69714;SDS011;56981;53.532;49.398;2024-03-02T02:15:26;6.72;;;4.05;;
69714;SDS011;56981;53.532;49.398;2024-03-02T02:17:55;9.27;;;3.58;;
69714;SDS011;56981;53.532;49.398;2024-03-02T02:20:21;4.65;;;1.98;;
69714;SDS011;56981;53.532;49.398;2024-03-02T02:25:20;9.85;;;4.15;;
69714;SDS011;56981;53.532;49.398;2024-03-02T02:27:46;2.63;;;1.55;;
69714;SDS011;56981;53.532;49.398;2024-03-02T02:30:12;6.75;;;3.20;;
69714;SDS011;56981;53.532;49.398;2024-03-02T02:32:38;8.98;;;3.75;;
69714;SDS011;56981;53.532;49.398;2024-03-02T02:35:04;8.20;;;2.30;;
69714;SDS011;56981;53.532;49.398;2024-03-02T02:37:31;5.32;;;3.05;;
69714;SDS011;56981;53.532;49.398;2024-03-02T02:39:57;4.35;;;1.95;;
69714;SDS011;56981;53.532;49.398;2024-03-02T02:42:23;8.10;;;3.42;;
69714;SDS011;56981;53.532;49.398;2024-03-02T02:44:49;3.88;;;2.15;;
69714;SDS011;56981;53.532;49.398;2024-03-02T02:47:15;4.32;;;2.30;;
69714;SDS011;56981;53.532;49.398;2024-03-02T02:49:41;9.15;;;3.90;;
69714;SDS011;56981;53.532;49.398;2024-03-02T02:52:08;7.15;;;3.10;;
69714;SDS011;56981;53.532;49.398;2024-03-02T02:54:34;6.35;;;3.10;;
69714;SDS011;56981;53.532;49.398;2024-03-02T02:57:02;11.35;;;2.42;;
69714;SDS011;56981;53.532;49.398;2024-03-02T02:59:28;6.60;;;2.85;;
69714;SDS011;56981;53.532;49.398;2024-03-02T03:01:54;8.18;;;2.83;;
69714;SDS011;56981;53.532;49.398;2024-03-02T03:04:20;5.03;;;2.65;;
69714;SDS011;56981;53.532;49.398;2024-03-02T03:06:46;8.10;;;4.38;;
69714;SDS011;56981;53.532;49.398;2024-03-02T03:09:12;6.70;;;3.55;;
69714;SDS011;56981;53.532;49.398;2024-03-02T03:11:38;9.52;;;5.72;;
69714;SDS011;56981;53.532;49.398;2024-03-02T03:14:04;12.25;;;3.22;;
69714;SDS011;56981;53.532;49.398;2024-03-02T03:16:30;8.57;;;2.38;;
69714;SDS011;56981;53.532;49.398;2024-03-02T03:18:56;10.35;;;2.67;;
69714;SDS011;56981;53.532;49.398;2024-03-02T03:21:22;5.97;;;3.17;;
69714;SDS011;56981;53.532;49.398;2024-03-02T03:23:48;12.13;;;4.40;;
69714;SDS011;56981;53.532;49.398;2024-03-02T03:26:14;7.38;;;3.03;;
69714;SDS011;56981;53.532;49.398;2024-03-02T03:28:40;4.88;;;2.33;;
69714;SDS011;56981;53.532;49.398;2024-03-02T03:31:09;7.18;;;2.38;;
69714;SDS011;56981;53.532;49.398;2024-03-02T03:33:36;11.00;;;4.22;;
69714;SDS011;56981;53.532;49.398;2024-03-02T03:36:02;5.93;;;3.15;;
69714;SDS011;56981;53.532;49.398;2024-03-02T03:38:29;10.30;;;4.32;;
69714;SDS011;56981;53.532;49.398;2024-03-02T03:40:55;8.10;;;3.60;;
69714;SDS011;56981;53.532;49.398;2024-03-02T03:43:22;8.45;;;4.18;;
69714;SDS011;56981;53.532;49.398;2024-03-02T03:45:48;9.18;;;3.58;;
69714;SDS011;56981;53.532;49.398;2024-03-02T03:48:14;9.40;;;4.00;;
69714;SDS011;56981;53.532;49.398;2024-03-02T03:50:41;14.15;;;4.90;;
69714;SDS011;56981;53.532;49.398;2024-03-02T03:53:07;10.00;;;3.72;;
69714;SDS011;56981;53.532;49.398;2024-03-02T03:55:33;13.25;;;4.50;;
69714;SDS011;56981;53.532;49.398;2024-03-02T03:57:59;9.63;;;4.43;;
69714;SDS011;56981;53.532;49.398;2024-03-02T04:00:25;10.93;;;4.50;;
69714;SDS011;56981;53.532;49.398;2024-03-02T04:02:51;8.48;;;3.83;;
69714;SDS011;56981;53.532;49.398;2024-03-02T04:05:17;9.18;;;4.40;;
69714;SDS011;56981;53.532;49.398;2024-03-02T04:07:43;10.50;;;4.30;;
69714;SDS011;56981;53.532;49.398;2024-03-02T04:10:10;10.43;;;3.95;;
69714;SDS011;56981;53.532;49.398;2024-03-02T04:12:36;8.95;;;3.97;;
69714;SDS011;56981;53.532;49.398;2024-03-02T04:15:03;9.73;;;4.15;;
69714;SDS011;56981;53.532;49.398;2024-03-02T04:17:32;13.48;;;4.95;;
69714;SDS011;56981;53.532;49.398;2024-03-02T04:19:59;10.35;;;4.88;;
69714;SDS011;56981;53.532;49.398;2024-03-02T04:22:26;10.65;;;4.28;;
69714;SDS011;56981;53.532;49.398;2024-03-02T04:24:53;10.05;;;4.65;;
69714;SDS011;56981;53.532;49.398;2024-03-02T04:27:19;12.85;;;3.90;;
69714;SDS011;56981;53.532;49.398;2024-03-02T04:29:46;6.07;;;2.85;;
69714;SDS011;56981;53.532;49.398;2024-03-02T04:32:12;8.95;;;4.15;;
69714;SDS011;56981;53.532;49.398;2024-03-02T04:34:38;15.65;;;5.28;;
69714;SDS011;56981;53.532;49.398;2024-03-02T04:37:04;9.48;;;4.35;;
69714;SDS011;56981;53.532;49.398;2024-03-02T04:39:30;11.43;;;5.18;;
69714;SDS011;56981;53.532;49.398;2024-03-02T04:41:56;10.23;;;4.35;;
69714;SDS011;56981;53.532;49.398;2024-03-02T04:44:23;13.18;;;4.60;;
69714;SDS011;56981;53.532;49.398;2024-03-02T04:46:49;12.45;;;5.45;;
69714;SDS011;56981;53.532;49.398;2024-03-02T04:49:15;10.05;;;4.68;;
69714;SDS011;56981;53.532;49.398;2024-03-02T04:51:42;10.00;;;4.85;;
69714;SDS011;56981;53.532;49.398;2024-03-02T04:54:08;14.00;;;5.45;;
69714;SDS011;56981;53.532;49.398;2024-03-02T04:56:34;15.63;;;6.00;;
69714;SDS011;56981;53.532;49.398;2024-03-02T04:59:10;11.10;;;4.53;;
69714;SDS011;56981;53.532;49.398;2024-03-02T05:01:36;12.88;;;5.38;;
69714;SDS011;56981;53.532;49.398;2024-03-02T05:04:02;14.85;;;5.07;;
69714;SDS011;56981;53.532;49.398;2024-03-02T05:06:28;17.42;;;5.82;;
69714;SDS011;56981;53.532;49.398;2024-03-02T05:08:55;9.23;;;5.05;;
69714;SDS011;56981;53.532;49.398;2024-03-02T05:11:22;12.10;;;5.80;;
69714;SDS011;56981;53.532;49.398;2024-03-02T05:14:03;11.15;;;5.30;;
69714;SDS011;56981;53.532;49.398;2024-03-02T05:16:39;11.95;;;5.22;;
69714;SDS011;56981;53.532;49.398;2024-03-02T05:19:07;13.52;;;5.93;;
69714;SDS011;56981;53.532;49.398;2024-03-02T05:21:34;13.80;;;7.00;;
69714;SDS011;56981;53.532;49.398;2024-03-02T05:24:04;10.98;;;5.50;;
69714;SDS011;56981;53.532;49.398;2024-03-02T05:26:31;14.23;;;6.40;;
69714;SDS011;56981;53.532;49.398;2024-03-02T05:28:57;12.40;;;5.82;;
69714;SDS011;56981;53.532;49.398;2024-03-02T05:31:24;14.25;;;6.72;;
69714;SDS011;56981;53.532;49.398;2024-03-02T05:33:50;14.32;;;6.15;;
69714;SDS011;56981;53.532;49.398;2024-03-02T05:36:18;10.65;;;5.82;;
69714;SDS011;56981;53.532;49.398;2024-03-02T05:38:44;11.80;;;5.97;;
69714;SDS011;56981;53.532;49.398;2024-03-02T05:41:10;14.27;;;6.57;;
69714;SDS011;56981;53.532;49.398;2024-03-02T05:43:37;15.07;;;6.05;;
69714;SDS011;56981;53.532;49.398;2024-03-02T05:46:03;12.93;;;5.50;;
69714;SDS011;56981;53.532;49.398;2024-03-02T05:48:29;13.82;;;6.45;;
69714;SDS011;56981;53.532;49.398;2024-03-02T05:50:56;11.65;;;5.85;;
69714;SDS011;56981;53.532;49.398;2024-03-02T05:53:22;11.35;;;4.75;;
69714;SDS011;56981;53.532;49.398;2024-03-02T05:55:48;13.95;;;5.93;;
69714;SDS011;56981;53.532;49.398;2024-03-02T05:58:18;11.63;;;5.65;;
69714;SDS011;56981;53.532;49.398;2024-03-02T06:01:23;11.80;;;5.65;;
69714;SDS011;56981;53.532;49.398;2024-03-02T06:03:54;11.15;;;6.00;;
69714;SDS011;56981;53.532;49.398;2024-03-02T06:06:22;12.75;;;5.38;;
69714;SDS011;56981;53.532;49.398;2024-03-02T06:08:48;11.88;;;5.40;;
69714;SDS011;56981;53.532;49.398;2024-03-02T06:11:14;10.93;;;5.22;;
69714;SDS011;56981;53.532;49.398;2024-03-02T06:13:40;12.23;;;5.25;;
69714;SDS011;56981;53.532;49.398;2024-03-02T06:16:09;8.85;;;4.95;;
69714;SDS011;56981;53.532;49.398;2024-03-02T06:18:35;10.73;;;4.78;;
69714;SDS011;56981;53.532;49.398;2024-03-02T06:21:04;9.25;;;4.95;;
69714;SDS011;56981;53.532;49.398;2024-03-02T06:23:30;8.65;;;4.97;;
69714;SDS011;56981;53.532;49.398;2024-03-02T06:25:57;8.35;;;4.82;;
69714;SDS011;56981;53.532;49.398;2024-03-02T06:28:23;13.00;;;5.55;;
69714;SDS011;56981;53.532;49.398;2024-03-02T06:30:49;12.98;;;5.75;;
69714;SDS011;56981;53.532;49.398;2024-03-02T06:33:15;10.20;;;5.25;;
69714;SDS011;56981;53.532;49.398;2024-03-02T06:35:42;12.57;;;5.15;;
69714;SDS011;56981;53.532;49.398;2024-03-02T06:38:08;10.65;;;5.32;;
69714;SDS011;56981;53.532;49.398;2024-03-02T06:40:34;6.55;;;4.72;;
69714;SDS011;56981;53.532;49.398;2024-03-02T06:43:00;8.48;;;5.10;;
69714;SDS011;56981;53.532;49.398;2024-03-02T06:45:26;9.18;;;4.60;;
69714;SDS011;56981;53.532;49.398;2024-03-02T06:47:53;8.70;;;4.85;;
69714;SDS011;56981;53.532;49.398;2024-03-02T06:50:19;10.70;;;5.28;;
69714;SDS011;56981;53.532;49.398;2024-03-02T06:52:45;9.35;;;4.38;;
69714;SDS011;56981;53.532;49.398;2024-03-02T06:55:12;7.68;;;4.75;;
69714;SDS011;56981;53.532;49.398;2024-03-02T06:57:38;8.18;;;4.38;;
69714;SDS011;56981;53.532;49.398;2024-03-02T07:00:04;5.93;;;4.28;;
69714;SDS011;56981;53.532;49.398;2024-03-02T07:02:31;11.80;;;5.57;;
69714;SDS011;56981;53.532;49.398;2024-03-02T07:04:58;8.77;;;4.43;;
69714;SDS011;56981;53.532;49.398;2024-03-02T07:07:23;7.78;;;4.53;;
69714;SDS011;56981;53.532;49.398;2024-03-02T07:09:50;7.53;;;4.00;;
69714;SDS011;56981;53.532;49.398;2024-03-02T07:12:16;9.70;;;4.68;;
69714;SDS011;56981;53.532;49.398;2024-03-02T07:14:45;6.20;;;3.83;;
69714;SDS011;56981;53.532;49.398;2024-03-02T07:17:32;9.00;;;5.13;;
69714;SDS011;56981;53.532;49.398;2024-03-02T07:19:58;8.35;;;4.38;;
69714;SDS011;56981;53.532;49.398;2024-03-02T07:22:25;8.35;;;4.15;;
69714;SDS011;56981;53.532;49.398;2024-03-02T07:24:51;9.95;;;4.95;;
69714;SDS011;56981;53.532;49.398;2024-03-02T07:27:17;9.57;;;3.92;;
69714;SDS011;56981;53.532;49.398;2024-03-02T07:29:43;9.82;;;4.45;;
69714;SDS011;56981;53.532;49.398;2024-03-02T07:32:10;6.95;;;4.10;;
69714;SDS011;56981;53.532;49.398;2024-03-02T07:34:36;6.07;;;3.65;;
69714;SDS011;56981;53.532;49.398;2024-03-02T07:37:05;6.97;;;3.65;;
69714;SDS011;56981;53.532;49.398;2024-03-02T07:39:32;7.57;;;3.47;;
69714;SDS011;56981;53.532;49.398;2024-03-02T07:41:58;5.60;;;3.25;;
69714;SDS011;56981;53.532;49.398;2024-03-02T07:44:25;4.38;;;3.00;;
69714;SDS011;56981;53.532;49.398;2024-03-02T07:46:52;5.95;;;3.40;;
69714;SDS011;56981;53.532;49.398;2024-03-02T07:49:19;4.90;;;2.90;;
69714;SDS011;56981;53.532;49.398;2024-03-02T07:51:48;6.95;;;3.17;;
69714;SDS011;56981;53.532;49.398;2024-03-02T07:54:17;5.32;;;2.92;;
69714;SDS011;56981;53.532;49.398;2024-03-02T07:56:44;6.82;;;2.95;;
69714;SDS011;56981;53.532;49.398;2024-03-02T07:59:11;5.15;;;3.20;;
69714;SDS011;56981;53.532;49.398;2024-03-02T08:01:37;5.72;;;3.17;;
69714;SDS011;56981;53.532;49.398;2024-03-02T08:04:06;5.97;;;3.45;;
69714;SDS011;56981;53.532;49.398;2024-03-02T08:06:32;5.32;;;3.30;;
69714;SDS011;56981;53.532;49.398;2024-03-02T08:08:59;4.97;;;3.38;;
69714;SDS011;56981;53.532;49.398;2024-03-02T08:11:26;6.82;;;3.22;;
69714;SDS011;56981;53.532;49.398;2024-03-02T08:13:53;6.13;;;3.42;;
69714;SDS011;56981;53.532;49.398;2024-03-02T08:16:20;8.25;;;3.40;;
69714;SDS011;56981;53.532;49.398;2024-03-02T08:18:49;6.72;;;3.13;;
69714;SDS011;56981;53.532;49.398;2024-03-02T08:21:16;6.68;;;3.25;;
69714;SDS011;56981;53.532;49.398;2024-03-02T08:23:43;6.80;;;3.67;;
69714;SDS011;56981;53.532;49.398;2024-03-02T08:26:09;5.03;;;3.53;;
69714;SDS011;56981;53.532;49.398;2024-03-02T08:28:36;7.72;;;3.15;;
69714;SDS011;56981;53.532;49.398;2024-03-02T08:31:03;4.72;;;3.42;;
69714;SDS011;56981;53.532;49.398;2024-03-02T08:33:29;6.80;;;3.05;;
69714;SDS011;56981;53.532;49.398;2024-03-02T08:35:55;7.32;;;6.00;;
69714;SDS011;56981;53.532;49.398;2024-03-02T08:38:22;5.78;;;4.72;;
69714;SDS011;56981;53.532;49.398;2024-03-02T08:40:49;6.97;;;5.03;;
69714;SDS011;56981;53.532;49.398;2024-03-02T08:43:15;13.93;;;8.02;;
69714;SDS011;56981;53.532;49.398;2024-03-02T08:45:42;6.03;;;3.88;;
69714;SDS011;56981;53.532;49.398;2024-03-02T08:48:08;4.90;;;3.80;;
69714;SDS011;56981;53.532;49.398;2024-03-02T08:50:35;4.60;;;3.08;;
69714;SDS011;56981;53.532;49.398;2024-03-02T08:53:03;7.03;;;3.28;;
69714;SDS011;56981;53.532;49.398;2024-03-02T08:55:29;10.80;;;6.45;;
69714;SDS011;56981;53.532;49.398;2024-03-02T08:57:55;12.15;;;6.90;;
69714;SDS011;56981;53.532;49.398;2024-03-02T09:00:22;19.77;;;8.00;;
69714;SDS011;56981;53.532;49.398;2024-03-02T09:02:49;12.13;;;6.63;;
69714;SDS011;56981;53.532;49.398;2024-03-02T09:05:15;11.05;;;6.07;;
69714;SDS011;56981;53.532;49.398;2024-03-02T09:07:41;11.93;;;5.05;;
69714;SDS011;56981;53.532;49.398;2024-03-02T09:10:07;9.23;;;5.53;;
69714;SDS011;56981;53.532;49.398;2024-03-02T09:12:34;12.13;;;6.57;;
69714;SDS011;56981;53.532;49.398;2024-03-02T09:15:04;12.88;;;6.72;;
69714;SDS011;56981;53.532;49.398;2024-03-02T09:17:31;16.85;;;6.60;;
69714;SDS011;56981;53.532;49.398;2024-03-02T09:19:57;15.15;;;6.53;;
69714;SDS011;56981;53.532;49.398;2024-03-02T09:22:23;16.23;;;7.63;;
69714;SDS011;56981;53.532;49.398;2024-03-02T09:24:49;14.60;;;7.10;;
69714;SDS011;56981;53.532;49.398;2024-03-02T09:27:15;17.85;;;7.53;;
69714;SDS011;56981;53.532;49.398;2024-03-02T09:29:42;16.63;;;6.95;;
69714;SDS011;56981;53.532;49.398;2024-03-02T09:32:08;14.70;;;7.88;;
69714;SDS011;56981;53.532;49.398;2024-03-02T09:34:39;15.68;;;7.57;;
69714;SDS011;56981;53.532;49.398;2024-03-02T09:37:05;16.85;;;6.93;;
69714;SDS011;56981;53.532;49.398;2024-03-02T09:39:31;13.95;;;7.07;;
69714;SDS011;56981;53.532;49.398;2024-03-02T09:41:58;14.23;;;7.10;;
69714;SDS011;56981;53.532;49.398;2024-03-02T09:44:28;19.35;;;7.78;;
69714;SDS011;56981;53.532;49.398;2024-03-02T09:46:55;18.52;;;8.32;;
69714;SDS011;56981;53.532;49.398;2024-03-02T09:49:21;13.80;;;6.82;;
69714;SDS011;56981;53.532;49.398;2024-03-02T09:51:48;14.35;;;7.35;;
69714;SDS011;56981;53.532;49.398;2024-03-02T09:54:17;16.08;;;7.68;;
69714;SDS011;56981;53.532;49.398;2024-03-02T09:56:44;19.00;;;8.27;;
69714;SDS011;56981;53.532;49.398;2024-03-02T09:59:11;19.67;;;9.73;;
69714;SDS011;56981;53.532;49.398;2024-03-02T10:01:38;17.52;;;9.13;;
69714;SDS011;56981;53.532;49.398;2024-03-02T10:04:04;23.45;;;11.05;;
69714;SDS011;56981;53.532;49.398;2024-03-02T10:06:31;21.27;;;10.68;;
69714;SDS011;56981;53.532;49.398;2024-03-02T10:09:00;17.50;;;8.48;;
69714;SDS011;56981;53.532;49.398;2024-03-02T10:11:33;16.63;;;8.57;;
69714;SDS011;56981;53.532;49.398;2024-03-02T10:14:11;13.55;;;7.18;;
69714;SDS011;56981;53.532;49.398;2024-03-02T10:16:42;18.55;;;7.65;;
69714;SDS011;56981;53.532;49.398;2024-03-02T10:19:23;13.45;;;6.55;;
69714;SDS011;56981;53.532;49.398;2024-03-02T10:21:53;9.02;;;3.80;;
69714;SDS011;56981;53.532;49.398;2024-03-02T10:24:20;23.60;;;11.15;;
69714;SDS011;56981;53.532;49.398;2024-03-02T10:26:48;21.25;;;11.45;;
69714;SDS011;56981;53.532;49.398;2024-03-02T10:29:15;19.10;;;11.07;;
69714;SDS011;56981;53.532;49.398;2024-03-02T10:31:42;26.08;;;14.07;;
69714;SDS011;56981;53.532;49.398;2024-03-02T10:34:11;26.33;;;13.27;;
69714;SDS011;56981;53.532;49.398;2024-03-02T10:36:42;24.90;;;11.70;;
69714;SDS011;56981;53.532;49.398;2024-03-02T10:39:10;26.05;;;13.50;;
69714;SDS011;56981;53.532;49.398;2024-03-02T10:41:38;28.27;;;12.82;;
69714;SDS011;56981;53.532;49.398;2024-03-02T10:44:08;22.35;;;12.18;;
69714;SDS011;56981;53.532;49.398;2024-03-02T10:46:36;36.15;;;17.10;;
69714;SDS011;56981;53.532;49.398;2024-03-02T10:49:04;30.92;;;15.02;;
69714;SDS011;56981;53.532;49.398;2024-03-02T10:51:31;27.40;;;14.20;;
69714;SDS011;56981;53.532;49.398;2024-03-02T10:53:59;35.63;;;16.85;;
69714;SDS011;56981;53.532;49.398;2024-03-02T10:56:32;27.23;;;13.90;;
69714;SDS011;56981;53.532;49.398;2024-03-02T10:59:06;24.83;;;14.30;;
69714;SDS011;56981;53.532;49.398;2024-03-02T11:01:50;30.27;;;13.77;;
69714;SDS011;56981;53.532;49.398;2024-03-02T11:04:17;28.48;;;15.38;;
69714;SDS011;56981;53.532;49.398;2024-03-02T11:06:50;21.25;;;12.18;;
69714;SDS011;56981;53.532;49.398;2024-03-02T11:09:25;23.33;;;11.93;;
69714;SDS011;56981;53.532;49.398;2024-03-02T11:12:00;26.88;;;13.90;;
69714;SDS011;56981;53.532;49.398;2024-03-02T11:14:30;29.80;;;15.05;;
69714;SDS011;56981;53.532;49.398;2024-03-02T11:16:59;22.40;;;14.15;;
69714;SDS011;56981;53.532;49.398;2024-03-02T11:19:27;23.95;;;12.32;;
69714;SDS011;56981;53.532;49.398;2024-03-02T11:21:54;20.85;;;9.35;;
69714;SDS011;56981;53.532;49.398;2024-03-02T11:26:50;23.35;;;12.75;;
69714;SDS011;56981;53.532;49.398;2024-03-02T11:32:05;30.23;;;12.88;;
69714;SDS011;56981;53.532;49.398;2024-03-02T11:34:38;28.77;;;14.65;;
69714;SDS011;56981;53.532;49.398;2024-03-02T11:37:11;22.63;;;12.55;;
69714;SDS011;56981;53.532;49.398;2024-03-02T11:39:40;28.23;;;13.95;;
69714;SDS011;56981;53.532;49.398;2024-03-02T11:42:09;31.38;;;14.15;;
69714;SDS011;56981;53.532;49.398;2024-03-02T11:44:38;29.55;;;13.82;;
69714;SDS011;56981;53.532;49.398;2024-03-02T11:47:05;31.25;;;15.00;;
69714;SDS011;56981;53.532;49.398;2024-03-02T11:52:09;26.40;;;13.45;;
69714;SDS011;56981;53.532;49.398;2024-03-02T11:54:41;25.45;;;12.93;;
69714;SDS011;56981;53.532;49.398;2024-03-02T11:57:20;24.77;;;11.23;;
69714;SDS011;56981;53.532;49.398;2024-03-02T11:59:51;25.38;;;13.07;;
69714;SDS011;56981;53.532;49.398;2024-03-02T12:02:19;26.42;;;13.65;;
69714;SDS011;56981;53.532;49.398;2024-03-02T12:04:46;25.40;;;12.85;;
69714;SDS011;56981;53.532;49.398;2024-03-02T12:07:20;29.05;;;12.18;;
69714;SDS011;56981;53.532;49.398;2024-03-02T12:10:01;23.15;;;12.38;;
69714;SDS011;56981;53.532;49.398;2024-03-02T12:12:28;22.60;;;12.63;;
69714;SDS011;56981;53.532;49.398;2024-03-02T12:14:55;18.52;;;9.23;;
69714;SDS011;56981;53.532;49.398;2024-03-02T12:17:26;22.25;;;9.13;;
69714;SDS011;56981;53.532;49.398;2024-03-02T12:19:52;19.92;;;9.68;;
69714;SDS011;56981;53.532;49.398;2024-03-02T12:22:18;19.90;;;9.23;;
69714;SDS011;56981;53.532;49.398;2024-03-02T12:24:45;22.92;;;11.70;;
69714;SDS011;56981;53.532;49.398;2024-03-02T12:27:12;22.15;;;9.35;;
69714;SDS011;56981;53.532;49.398;2024-03-02T12:29:40;19.67;;;10.55;;
69714;SDS011;56981;53.532;49.398;2024-03-02T12:32:06;18.63;;;8.27;;
69714;SDS011;56981;53.532;49.398;2024-03-02T12:34:35;13.00;;;5.40;;
69714;SDS011;56981;53.532;49.398;2024-03-02T12:37:03;18.50;;;7.30;;
69714;SDS011;56981;53.532;49.398;2024-03-02T12:39:29;16.15;;;5.70;;
69714;SDS011;56981;53.532;49.398;2024-03-02T12:41:58;12.95;;;5.55;;
69714;SDS011;56981;53.532;49.398;2024-03-02T12:44:24;15.05;;;5.63;;
69714;SDS011;56981;53.532;49.398;2024-03-02T12:46:51;19.77;;;6.70;;
69714;SDS011;56981;53.532;49.398;2024-03-02T12:49:21;11.32;;;5.18;;
69714;SDS011;56981;53.532;49.398;2024-03-02T12:51:48;21.70;;;10.50;;
69714;SDS011;56981;53.532;49.398;2024-03-02T12:54:17;15.50;;;5.45;;
69714;SDS011;56981;53.532;49.398;2024-03-02T12:56:44;13.85;;;5.80;;
69714;SDS011;56981;53.532;49.398;2024-03-02T12:59:20;13.15;;;5.10;;
69714;SDS011;56981;53.532;49.398;2024-03-02T13:01:51;11.07;;;4.55;;
69714;SDS011;56981;53.532;49.398;2024-03-02T13:04:27;10.95;;;4.95;;
69714;SDS011;56981;53.532;49.398;2024-03-02T13:06:58;10.48;;;4.50;;
69714;SDS011;56981;53.532;49.398;2024-03-02T13:09:24;10.88;;;4.32;;
69714;SDS011;56981;53.532;49.398;2024-03-02T13:11:51;4.45;;;2.67;;
69714;SDS011;56981;53.532;49.398;2024-03-02T13:14:17;8.85;;;2.80;;
69714;SDS011;56981;53.532;49.398;2024-03-02T13:16:44;8.00;;;2.90;;
69714;SDS011;56981;53.532;49.398;2024-03-02T13:19:15;11.88;;;3.47;;
69714;SDS011;56981;53.532;49.398;2024-03-02T13:21:41;7.90;;;3.33;;
69714;SDS011;56981;53.532;49.398;2024-03-02T13:24:07;8.95;;;3.53;;
69714;SDS011;56981;53.532;49.398;2024-03-02T13:26:34;6.60;;;3.38;;
69714;SDS011;56981;53.532;49.398;2024-03-02T13:29:00;15.35;;;4.00;;
69714;SDS011;56981;53.532;49.398;2024-03-02T13:31:28;9.85;;;3.35;;
69714;SDS011;56981;53.532;49.398;2024-03-02T13:34:00;8.85;;;3.33;;
69714;SDS011;56981;53.532;49.398;2024-03-02T13:36:27;6.57;;;3.67;;
69714;SDS011;56981;53.532;49.398;2024-03-02T13:38:54;10.15;;;4.25;;
69714;SDS011;56981;53.532;49.398;2024-03-02T13:41:20;9.35;;;3.65;;
69714;SDS011;56981;53.532;49.398;2024-03-02T13:43:47;10.80;;;4.32;;
69714;SDS011;56981;53.532;49.398;2024-03-02T13:46:18;12.13;;;4.30;;
69714;SDS011;56981;53.532;49.398;2024-03-02T13:48:46;12.13;;;4.53;;
69714;SDS011;56981;53.532;49.398;2024-03-02T13:51:12;11.48;;;3.75;;
69714;SDS011;56981;53.532;49.398;2024-03-02T13:53:39;14.45;;;4.05;;
69714;SDS011;56981;53.532;49.398;2024-03-02T13:56:07;9.50;;;4.05;;
69714;SDS011;56981;53.532;49.398;2024-03-02T13:58:36;9.90;;;4.20;;
69714;SDS011;56981;53.532;49.398;2024-03-02T14:01:05;13.60;;;3.55;;
69714;SDS011;56981;53.532;49.398;2024-03-02T14:03:32;7.05;;;3.45;;
69714;SDS011;56981;53.532;49.398;2024-03-02T14:05:59;9.57;;;3.53;;
69714;SDS011;56981;53.532;49.398;2024-03-02T14:11:49;10.25;;;3.90;;
69714;SDS011;56981;53.532;49.398;2024-03-02T14:14:16;14.93;;;4.45;;
69714;SDS011;56981;53.532;49.398;2024-03-02T14:16:42;16.17;;;4.45;;
69714;SDS011;56981;53.532;49.398;2024-03-02T14:19:10;9.30;;;3.42;;
69714;SDS011;56981;53.532;49.398;2024-03-02T14:21:38;9.93;;;3.30;;
69714;SDS011;56981;53.532;49.398;2024-03-02T14:24:05;13.52;;;4.00;;
69714;SDS011;56981;53.532;49.398;2024-03-02T14:26:43;9.75;;;3.45;;
69714;SDS011;56981;53.532;49.398;2024-03-02T14:29:11;8.90;;;4.15;;
69714;SDS011;56981;53.532;49.398;2024-03-02T14:31:44;14.75;;;4.00;;
69714;SDS011;56981;53.532;49.398;2024-03-02T14:34:17;10.73;;;3.42;;
69714;SDS011;56981;53.532;49.398;2024-03-02T14:36:43;12.20;;;4.10;;
69714;SDS011;56981;53.532;49.398;2024-03-02T14:39:12;17.77;;;5.60;;
69714;SDS011;56981;53.532;49.398;2024-03-02T14:41:39;12.70;;;4.72;;
69714;SDS011;56981;53.532;49.398;2024-03-02T14:44:08;11.88;;;5.15;;
69714;SDS011;56981;53.532;49.398;2024-03-02T14:46:38;12.98;;;4.80;;
69714;SDS011;56981;53.532;49.398;2024-03-02T14:49:05;12.13;;;3.75;;
69714;SDS011;56981;53.532;49.398;2024-03-02T14:51:32;13.02;;;4.75;;